sensor_id;sensor_type;location;lat;lon;timestamp;pressure;altitude;pressure_sealevel;temperature;humidity
32452;BME280;45528;52.102;5.242;2023-05-03T00:00:16;102595.0;;;10.83;54.48
32452;BME280;45528;52.102;5.242;2023-05-03T00:01:53;102592.0;;;10.63;55.28
32452;BME280;45528;52.102;5.242;2023-05-03T00:03:29;102592.0;;;10.54;55.67
32452;BME280;45528;52.102;5.242;2023-05-03T00:06:43;102596.0;;;10.54;55.44
32452;BME280;45528;52.102;5.242;2023-05-03T00:08:19;102593.0;;;10.33;55.81
32452;BME280;45528;52.102;5.242;2023-05-03T00:09:56;102592.0;;;10.48;55.53
32452;BME280;45528;52.102;5.242;2023-05-03T00:13:09;102591.00000000001;;;10.35;55.78
32452;BME280;45528;52.102;5.242;2023-05-03T00:14:45;102588.00000000001;;;10.33;55.8
32452;BME280;45528;52.102;5.242;2023-05-03T00:16:22;102583.99999999999;;;10.39;55.97
32452;BME280;45528;52.102;5.242;2023-05-03T00:19:35;102582.0;;;10.14;56.04
32452;BME280;45528;52.102;5.242;2023-05-03T00:21:11;102583.99999999999;;;10.34;55.66
32452;BME280;45528;52.102;5.242;2023-05-03T00:22:47;102584.99999999999;;;10.25;55.73
32452;BME280;45528;52.102;5.242;2023-05-03T00:24:24;102583.99999999999;;;10.28;55.71
32452;BME280;45528;52.102;5.242;2023-05-03T00:27:36;102586.99999999999;;;10.23;55.85
32452;BME280;45528;52.102;5.242;2023-05-03T00:29:12;102588.00000000001;;;10.3;55.88
32452;BME280;45528;52.102;5.242;2023-05-03T00:30:48;102591.00000000001;;;10.25;56.01
32452;BME280;45528;52.102;5.242;2023-05-03T00:34:00;102588.00000000001;;;10.17;56.46
32452;BME280;45528;52.102;5.242;2023-05-03T00:35:36;102586.99999999999;;;9.96;57.48
32452;BME280;45528;52.102;5.242;2023-05-03T00:37:13;102586.99999999999;;;9.89;57.82
32452;BME280;45528;52.102;5.242;2023-05-03T00:40:25;102584.99999999999;;;10.01;57.44
32452;BME280;45528;52.102;5.242;2023-05-03T00:42:02;102590.00000000001;;;10.07;56.87
32452;BME280;45528;52.102;5.242;2023-05-03T00:43:38;102589.00000000001;;;10.11;56.48
32452;BME280;45528;52.102;5.242;2023-05-03T00:45:14;102584.99999999999;;;9.93;56.86
32452;BME280;45528;52.102;5.242;2023-05-03T00:48:27;102588.00000000001;;;9.93;57.44
32452;BME280;45528;52.102;5.242;2023-05-03T00:50:04;102590.00000000001;;;10.01;57.04
32452;BME280;45528;52.102;5.242;2023-05-03T00:51:40;102593.0;;;9.86;57.22
32452;BME280;45528;52.102;5.242;2023-05-03T00:54:54;102592.0;;;9.94;57.2
32452;BME280;45528;52.102;5.242;2023-05-03T00:56:31;102589.00000000001;;;9.84;57.59
32452;BME280;45528;52.102;5.242;2023-05-03T00:58:09;102586.99999999999;;;9.92;57.4
32452;BME280;45528;52.102;5.242;2023-05-03T01:01:22;102589.00000000001;;;9.89;57.33
32452;BME280;45528;52.102;5.242;2023-05-03T01:02:59;102588.00000000001;;;9.93;57.49
32452;BME280;45528;52.102;5.242;2023-05-03T01:04:35;102586.99999999999;;;9.98;57.17
32452;BME280;45528;52.102;5.242;2023-05-03T01:06:18;102583.99999999999;;;9.98;57.33
32452;BME280;45528;52.102;5.242;2023-05-03T01:09:52;102588.00000000001;;;9.81;57.2
32452;BME280;45528;52.102;5.242;2023-05-03T01:11:41;102589.00000000001;;;9.97;57.37
32452;BME280;45528;52.102;5.242;2023-05-03T01:13:33;102586.99999999999;;;9.88;57.34
32452;BME280;45528;52.102;5.242;2023-05-03T01:15:21;102586.99999999999;;;9.93;57.24
32452;BME280;45528;52.102;5.242;2023-05-03T01:17:03;102589.00000000001;;;9.89;57.17
32452;BME280;45528;52.102;5.242;2023-05-03T01:18:44;102583.99999999999;;;9.98;57.08
32452;BME280;45528;52.102;5.242;2023-05-03T01:22:09;102586.99999999999;;;9.92;57.25
32452;BME280;45528;52.102;5.242;2023-05-03T01:23:55;102584.99999999999;;;9.75;57.35
32452;BME280;45528;52.102;5.242;2023-05-03T01:25:34;102584.99999999999;;;9.88;57.28
32452;BME280;45528;52.102;5.242;2023-05-03T01:27:10;102583.99999999999;;;9.82;57.54
32452;BME280;45528;52.102;5.242;2023-05-03T01:30:26;102586.99999999999;;;9.78;57.48
32452;BME280;45528;52.102;5.242;2023-05-03T01:32:06;102582.0;;;9.77;57.41
32452;BME280;45528;52.102;5.242;2023-05-03T01:33:50;102588.00000000001;;;9.73;57.57
32452;BME280;45528;52.102;5.242;2023-05-03T01:35:33;102584.99999999999;;;9.73;57.53
32452;BME280;45528;52.102;5.242;2023-05-03T01:38:48;102581.0;;;9.81;57.15
32452;BME280;45528;52.102;5.242;2023-05-03T01:40:27;102580.0;;;9.69;57.34
32452;BME280;45528;52.102;5.242;2023-05-03T01:42:04;102580.0;;;9.69;57.48
32452;BME280;45528;52.102;5.242;2023-05-03T01:45:18;102574.0;;;9.66;57.5
32452;BME280;45528;52.102;5.242;2023-05-03T01:46:56;102579.0;;;9.66;57.53
32452;BME280;45528;52.102;5.242;2023-05-03T01:48:32;102579.0;;;9.56;58.0
32452;BME280;45528;52.102;5.242;2023-05-03T01:50:09;102578.0;;;9.5;57.64
32452;BME280;45528;52.102;5.242;2023-05-03T01:53:20;102581.0;;;9.58;57.45
32452;BME280;45528;52.102;5.242;2023-05-03T01:54:57;102583.0;;;9.3;57.86
32452;BME280;45528;52.102;5.242;2023-05-03T01:56:34;102580.0;;;9.52;57.48
32452;BME280;45528;52.102;5.242;2023-05-03T01:59:46;102573.0;;;9.55;57.39
32452;BME280;45528;52.102;5.242;2023-05-03T02:01:22;102580.0;;;9.59;57.57
32452;BME280;45528;52.102;5.242;2023-05-03T02:02:58;102581.0;;;9.39;57.84
32452;BME280;45528;52.102;5.242;2023-05-03T02:06:11;102578.0;;;9.27;58.13
32452;BME280;45528;52.102;5.242;2023-05-03T02:07:47;102577.0;;;9.43;57.74
32452;BME280;45528;52.102;5.242;2023-05-03T02:09:24;102569.0;;;9.58;57.56
32452;BME280;45528;52.102;5.242;2023-05-03T02:12:36;102571.0;;;9.44;57.38
32452;BME280;45528;52.102;5.242;2023-05-03T02:14:12;102567.0;;;9.61;57.29
32452;BME280;45528;52.102;5.242;2023-05-03T02:15:48;102566.00000000001;;;9.57;57.16
32452;BME280;45528;52.102;5.242;2023-05-03T02:17:24;102559.99999999999;;;9.49;57.22
32452;BME280;45528;52.102;5.242;2023-05-03T02:20:37;102557.0;;;9.42;57.32
32452;BME280;45528;52.102;5.242;2023-05-03T02:22:13;102555.0;;;9.36;57.58
32452;BME280;45528;52.102;5.242;2023-05-03T02:23:49;102551.0;;;9.26;58.14
32452;BME280;45528;52.102;5.242;2023-05-03T02:27:01;102548.0;;;9.16;58.46
32452;BME280;45528;52.102;5.242;2023-05-03T02:28:37;102548.0;;;9.08;58.95
32452;BME280;45528;52.102;5.242;2023-05-03T02:30:13;102542.0;;;9.19;58.8
32452;BME280;45528;52.102;5.242;2023-05-03T02:33:26;102536.99999999999;;;9.22;58.92
32452;BME280;45528;52.102;5.242;2023-05-03T02:35:02;102532.0;;;9.15;59.34
32452;BME280;45528;52.102;5.242;2023-05-03T02:36:38;102528.0;;;9.06;59.79
32452;BME280;45528;52.102;5.242;2023-05-03T02:38:14;102532.0;;;9.01;59.85
32452;BME280;45528;52.102;5.242;2023-05-03T02:41:26;102524.0;;;9.03;59.97
32452;BME280;45528;52.102;5.242;2023-05-03T02:43:03;102523.0;;;8.94;60.28
32452;BME280;45528;52.102;5.242;2023-05-03T02:44:40;102520.0;;;8.92;60.61
32452;BME280;45528;52.102;5.242;2023-05-03T02:47:52;102522.0;;;8.92;60.62
32452;BME280;45528;52.102;5.242;2023-05-03T02:49:28;102520.0;;;8.98;60.4
32452;BME280;45528;52.102;5.242;2023-05-03T02:51:04;102527.0;;;8.97;60.43
32452;BME280;45528;52.102;5.242;2023-05-03T02:54:16;102532.0;;;9.01;60.01
32452;BME280;45528;52.102;5.242;2023-05-03T02:55:52;102531.0;;;8.99;60.0
32452;BME280;45528;52.102;5.242;2023-05-03T02:57:28;102539.00000000001;;;9.17;59.69
32452;BME280;45528;52.102;5.242;2023-05-03T03:00:41;102536.99999999999;;;9.22;59.6
32452;BME280;45528;52.102;5.242;2023-05-03T03:02:18;102533.99999999999;;;9.27;59.44
32452;BME280;45528;52.102;5.242;2023-05-03T03:03:54;102550.0;;;9.28;59.27
32452;BME280;45528;52.102;5.242;2023-05-03T03:05:31;102549.0;;;9.39;58.82
32452;BME280;45528;52.102;5.242;2023-05-03T03:08:44;102555.0;;;9.39;58.53
32452;BME280;45528;52.102;5.242;2023-05-03T03:10:21;102553.0;;;9.46;58.39
32452;BME280;45528;52.102;5.242;2023-05-03T03:11:57;102550.0;;;9.48;58.15
32452;BME280;45528;52.102;5.242;2023-05-03T03:15:10;102547.0;;;9.4;58.6
32452;BME280;45528;52.102;5.242;2023-05-03T03:16:46;102552.0;;;9.34;58.54
32452;BME280;45528;52.102;5.242;2023-05-03T03:18:22;102553.0;;;9.32;58.63
32452;BME280;45528;52.102;5.242;2023-05-03T03:21:34;102553.0;;;9.35;58.26
32452;BME280;45528;52.102;5.242;2023-05-03T03:23:11;102548.0;;;9.33;58.16
32452;BME280;45528;52.102;5.242;2023-05-03T03:24:47;102551.0;;;9.33;58.16
32452;BME280;45528;52.102;5.242;2023-05-03T03:26:23;102550.0;;;9.27;58.17
32452;BME280;45528;52.102;5.242;2023-05-03T03:29:35;102553.0;;;9.3;58.01
32452;BME280;45528;52.102;5.242;2023-05-03T03:31:11;102554.0;;;9.19;58.51
32452;BME280;45528;52.102;5.242;2023-05-03T03:32:47;102556.0;;;9.06;58.73
32452;BME280;45528;52.102;5.242;2023-05-03T03:36:00;102553.0;;;9.01;59.04
32452;BME280;45528;52.102;5.242;2023-05-03T03:37:36;102553.0;;;8.98;58.89
32452;BME280;45528;52.102;5.242;2023-05-03T03:39:13;102551.0;;;9.07;58.51
32452;BME280;45528;52.102;5.242;2023-05-03T03:42:25;102551.0;;;9.06;58.22
32452;BME280;45528;52.102;5.242;2023-05-03T03:44:01;102554.0;;;8.98;58.6
32452;BME280;45528;52.102;5.242;2023-05-03T03:45:37;102557.0;;;8.96;58.71
32452;BME280;45528;52.102;5.242;2023-05-03T03:48:50;102551.0;;;8.89;59.24
32452;BME280;45528;52.102;5.242;2023-05-03T03:50:26;102556.0;;;8.86;59.37
32452;BME280;45528;52.102;5.242;2023-05-03T03:52:02;102558.0;;;8.81;59.37
32452;BME280;45528;52.102;5.242;2023-05-03T03:53:39;102561.99999999999;;;8.84;58.86
32452;BME280;45528;52.102;5.242;2023-05-03T03:56:51;102563.00000000001;;;8.89;58.36
32452;BME280;45528;52.102;5.242;2023-05-03T03:58:28;102566.00000000001;;;9.03;57.67
32452;BME280;45528;52.102;5.242;2023-05-03T04:00:04;102565.00000000001;;;8.98;57.51
32452;BME280;45528;52.102;5.242;2023-05-03T04:03:17;102566.00000000001;;;9.06;57.26
32452;BME280;45528;52.102;5.242;2023-05-03T04:04:53;102565.00000000001;;;8.92;57.58
32452;BME280;45528;52.102;5.242;2023-05-03T04:06:29;102572.0;;;8.89;57.51
32452;BME280;45528;52.102;5.242;2023-05-03T04:09:41;102574.0;;;8.76;58.36
32452;BME280;45528;52.102;5.242;2023-05-03T04:11:18;102568.0;;;8.8;58.02
32452;BME280;45528;52.102;5.242;2023-05-03T04:12:54;102565.00000000001;;;8.78;58.05
32452;BME280;45528;52.102;5.242;2023-05-03T04:14:30;102563.00000000001;;;8.86;57.68
32452;BME280;45528;52.102;5.242;2023-05-03T04:17:43;102565.00000000001;;;8.94;57.43
32452;BME280;45528;52.102;5.242;2023-05-03T04:19:19;102569.0;;;8.84;57.82
32452;BME280;45528;52.102;5.242;2023-05-03T04:20:55;102573.0;;;8.86;57.61
32452;BME280;45528;52.102;5.242;2023-05-03T04:24:07;102579.0;;;8.89;57.72
32452;BME280;45528;52.102;5.242;2023-05-03T04:25:43;102588.00000000001;;;8.86;57.65
32452;BME280;45528;52.102;5.242;2023-05-03T04:27:19;102583.99999999999;;;8.81;57.91
32452;BME280;45528;52.102;5.242;2023-05-03T04:30:33;102592.0;;;8.81;57.91
32452;BME280;45528;52.102;5.242;2023-05-03T04:32:08;102594.0;;;8.84;57.81
32452;BME280;45528;52.102;5.242;2023-05-03T04:33:44;102595.0;;;8.73;58.52
32452;BME280;45528;52.102;5.242;2023-05-03T04:36:57;102602.0;;;8.74;58.5
32452;BME280;45528;52.102;5.242;2023-05-03T04:38:33;102607.0;;;8.68;58.77
32452;BME280;45528;52.102;5.242;2023-05-03T04:40:09;102611.99999999999;;;8.76;58.43
32452;BME280;45528;52.102;5.242;2023-05-03T04:41:44;102616.00000000001;;;8.74;58.34
32452;BME280;45528;52.102;5.242;2023-05-03T04:44:56;102621.0;;;8.76;58.34
32452;BME280;45528;52.102;5.242;2023-05-03T04:46:31;102619.0;;;8.73;58.61
32452;BME280;45528;52.102;5.242;2023-05-03T04:48:08;102617.0;;;8.75;58.63
32452;BME280;45528;52.102;5.242;2023-05-03T04:51:19;102619.0;;;8.83;58.28
32452;BME280;45528;52.102;5.242;2023-05-03T04:52:54;102619.0;;;8.92;57.97
32452;BME280;45528;52.102;5.242;2023-05-03T04:54:30;102619.0;;;8.91;58.62
32452;BME280;45528;52.102;5.242;2023-05-03T04:57:41;102620.0;;;8.89;58.88
32452;BME280;45528;52.102;5.242;2023-05-03T04:59:17;102616.00000000001;;;8.9;58.85
32452;BME280;45528;52.102;5.242;2023-05-03T05:00:53;102615.00000000001;;;8.93;58.83
32452;BME280;45528;52.102;5.242;2023-05-03T05:04:04;102606.0;;;9.06;58.33
32452;BME280;45528;52.102;5.242;2023-05-03T05:05:40;102607.0;;;9.06;58.37
32452;BME280;45528;52.102;5.242;2023-05-03T05:07:16;102605.0;;;9.06;58.62
32452;BME280;45528;52.102;5.242;2023-05-03T05:08:53;102608.99999999999;;;9.08;58.67
32452;BME280;45528;52.102;5.242;2023-05-03T05:12:06;102611.99999999999;;;9.14;59.25
32452;BME280;45528;52.102;5.242;2023-05-03T05:13:42;102616.00000000001;;;9.18;58.41
32452;BME280;45528;52.102;5.242;2023-05-03T05:15:18;102617.0;;;9.26;58.71
32452;BME280;45528;52.102;5.242;2023-05-03T05:18:30;102620.0;;;9.36;58.19
32452;BME280;45528;52.102;5.242;2023-05-03T05:20:07;102622.0;;;9.48;57.71
32452;BME280;45528;52.102;5.242;2023-05-03T05:21:44;102620.0;;;9.63;57.6
32452;BME280;45528;52.102;5.242;2023-05-03T05:24:56;102625.0;;;9.74;57.45
32452;BME280;45528;52.102;5.242;2023-05-03T05:26:32;102619.0;;;9.8;57.48
32452;BME280;45528;52.102;5.242;2023-05-03T05:28:08;102624.0;;;9.85;57.25
32452;BME280;45528;52.102;5.242;2023-05-03T05:31:22;102625.0;;;10.01;57.24
32452;BME280;45528;52.102;5.242;2023-05-03T05:32:58;102622.0;;;10.07;57.54
32452;BME280;45528;52.102;5.242;2023-05-03T05:34:34;102619.0;;;10.22;56.97
32452;BME280;45528;52.102;5.242;2023-05-03T05:36:10;102624.0;;;10.28;56.66
32452;BME280;45528;52.102;5.242;2023-05-03T05:39:22;102625.0;;;10.4;56.15
32452;BME280;45528;52.102;5.242;2023-05-03T05:40:58;102622.0;;;10.55;56.02
32452;BME280;45528;52.102;5.242;2023-05-03T05:42:35;102623.0;;;10.61;56.11
32452;BME280;45528;52.102;5.242;2023-05-03T05:45:47;102627.0;;;10.78;55.37
32452;BME280;45528;52.102;5.242;2023-05-03T05:47:23;102627.0;;;10.92;55.02
32452;BME280;45528;52.102;5.242;2023-05-03T05:48:59;102628.0;;;11.14;54.61
32452;BME280;45528;52.102;5.242;2023-05-03T05:52:11;102626.0;;;11.28;54.69
32452;BME280;45528;52.102;5.242;2023-05-03T05:53:48;102628.0;;;11.39;54.48
32452;BME280;45528;52.102;5.242;2023-05-03T05:55:24;102625.0;;;11.46;54.3
32452;BME280;45528;52.102;5.242;2023-05-03T05:58:35;102629.0;;;11.81;53.52
32452;BME280;45528;52.102;5.242;2023-05-03T06:00:12;102630.0;;;12.02;52.28
32452;BME280;45528;52.102;5.242;2023-05-03T06:01:48;102631.0;;;12.13;52.0
32452;BME280;45528;52.102;5.242;2023-05-03T06:03:25;102633.99999999999;;;12.07;51.56
32452;BME280;45528;52.102;5.242;2023-05-03T06:06:37;102640.00000000001;;;12.3;51.38
32452;BME280;45528;52.102;5.242;2023-05-03T06:08:13;102641.00000000001;;;12.42;51.23
32452;BME280;45528;52.102;5.242;2023-05-03T06:09:49;102636.99999999999;;;12.59;50.43
32452;BME280;45528;52.102;5.242;2023-05-03T06:13:02;102633.99999999999;;;12.81;50.32
32452;BME280;45528;52.102;5.242;2023-05-03T06:14:38;102633.0;;;12.77;49.73
32452;BME280;45528;52.102;5.242;2023-05-03T06:16:14;102636.99999999999;;;12.8;49.68
32452;BME280;45528;52.102;5.242;2023-05-03T06:19:26;102634.99999999999;;;12.94;49.53
32452;BME280;45528;52.102;5.242;2023-05-03T06:21:02;102636.99999999999;;;13.19;48.84
32452;BME280;45528;52.102;5.242;2023-05-03T06:22:38;102629.0;;;13.25;47.77
32452;BME280;45528;52.102;5.242;2023-05-03T06:24:15;102627.0;;;13.31;47.32
32452;BME280;45528;52.102;5.242;2023-05-03T06:27:28;102630.0;;;13.53;47.41
32452;BME280;45528;52.102;5.242;2023-05-03T06:29:04;102629.0;;;13.56;46.36
32452;BME280;45528;52.102;5.242;2023-05-03T06:30:40;102626.0;;;13.75;46.01
32452;BME280;45528;52.102;5.242;2023-05-03T06:33:53;102626.0;;;13.97;46.31
32452;BME280;45528;52.102;5.242;2023-05-03T06:35:30;102621.0;;;13.78;46.08
32452;BME280;45528;52.102;5.242;2023-05-03T06:37:06;102617.0;;;13.78;46.33
32452;BME280;45528;52.102;5.242;2023-05-03T06:40:18;102622.0;;;13.53;45.75
32452;BME280;45528;52.102;5.242;2023-05-03T06:41:54;102620.0;;;13.86;45.63
32452;BME280;45528;52.102;5.242;2023-05-03T06:43:30;102622.0;;;13.76;46.05
32452;BME280;45528;52.102;5.242;2023-05-03T06:46:43;102627.0;;;13.59;45.49
32452;BME280;45528;52.102;5.242;2023-05-03T06:48:20;102629.0;;;13.96;44.67
32452;BME280;45528;52.102;5.242;2023-05-03T06:49:58;102624.0;;;13.85;44.61
32452;BME280;45528;52.102;5.242;2023-05-03T06:51:34;102615.00000000001;;;13.67;44.65
32452;BME280;45528;52.102;5.242;2023-05-03T06:54:46;102618.0;;;13.86;44.21
32452;BME280;45528;52.102;5.242;2023-05-03T06:56:22;102620.0;;;14.09;44.3
32452;BME280;45528;52.102;5.242;2023-05-03T06:57:59;102623.0;;;14.44;43.63
32452;BME280;45528;52.102;5.242;2023-05-03T07:01:11;102618.0;;;14.57;43.35
32452;BME280;45528;52.102;5.242;2023-05-03T07:02:47;102616.00000000001;;;14.55;43.04
32452;BME280;45528;52.102;5.242;2023-05-03T07:04:23;102621.0;;;14.54;43.32
32452;BME280;45528;52.102;5.242;2023-05-03T07:07:36;102609.99999999999;;;14.2;43.13
32452;BME280;45528;52.102;5.242;2023-05-03T07:09:12;102605.0;;;14.13;43.04
32452;BME280;45528;52.102;5.242;2023-05-03T07:10:48;102608.0;;;14.37;42.73
32452;BME280;45528;52.102;5.242;2023-05-03T07:12:24;102606.0;;;14.54;43.16
32452;BME280;45528;52.102;5.242;2023-05-03T07:15:36;102615.00000000001;;;14.63;42.27
32452;BME280;45528;52.102;5.242;2023-05-03T07:17:12;102608.99999999999;;;14.89;42.54
32452;BME280;45528;52.102;5.242;2023-05-03T07:18:48;102603.0;;;14.82;42.31
32452;BME280;45528;52.102;5.242;2023-05-03T07:22:01;102602.0;;;15.11;42.28
32452;BME280;45528;52.102;5.242;2023-05-03T07:23:37;102608.0;;;15.02;42.03
32452;BME280;45528;52.102;5.242;2023-05-03T07:25:13;102600.0;;;14.67;42.32
32452;BME280;45528;52.102;5.242;2023-05-03T07:28:25;102603.0;;;14.77;41.97
32452;BME280;45528;52.102;5.242;2023-05-03T07:30:02;102593.0;;;14.58;43.0
32452;BME280;45528;52.102;5.242;2023-05-03T07:31:38;102583.99999999999;;;14.86;42.31
32452;BME280;45528;52.102;5.242;2023-05-03T07:34:51;102584.99999999999;;;14.91;42.63
32452;BME280;45528;52.102;5.242;2023-05-03T07:36:28;102592.0;;;14.7;42.22
32452;BME280;45528;52.102;5.242;2023-05-03T07:38:04;102591.00000000001;;;14.75;42.58
32452;BME280;45528;52.102;5.242;2023-05-03T07:39:40;102589.00000000001;;;15.27;41.99
32452;BME280;45528;52.102;5.242;2023-05-03T07:42:53;102577.0;;;14.91;41.72
32452;BME280;45528;52.102;5.242;2023-05-03T07:44:29;102576.0;;;15.01;41.62
32452;BME280;45528;52.102;5.242;2023-05-03T07:46:05;102572.0;;;14.98;41.77
32452;BME280;45528;52.102;5.242;2023-05-03T07:49:16;102575.0;;;15.54;40.78
32452;BME280;45528;52.102;5.242;2023-05-03T07:50:52;102571.0;;;15.5;40.65
32452;BME280;45528;52.102;5.242;2023-05-03T07:52:28;102567.0;;;15.38;40.26
32452;BME280;45528;52.102;5.242;2023-05-03T07:55:41;102571.0;;;15.68;40.92
32452;BME280;45528;52.102;5.242;2023-05-03T07:57:17;102571.0;;;15.62;41.18
32452;BME280;45528;52.102;5.242;2023-05-03T07:58:53;102572.0;;;15.22;40.62
32452;BME280;45528;52.102;5.242;2023-05-03T08:00:29;102574.0;;;15.11;41.28
32452;BME280;45528;52.102;5.242;2023-05-03T08:03:42;102576.0;;;15.22;40.74
32452;BME280;45528;52.102;5.242;2023-05-03T08:05:18;102567.0;;;15.79;39.53
32452;BME280;45528;52.102;5.242;2023-05-03T08:06:54;102570.0;;;15.73;39.89
32452;BME280;45528;52.102;5.242;2023-05-03T08:10:07;102565.00000000001;;;15.84;39.81
32452;BME280;45528;52.102;5.242;2023-05-03T08:11:44;102568.0;;;15.77;39.97
32452;BME280;45528;52.102;5.242;2023-05-03T08:13:20;102568.0;;;16.23;39.58
32452;BME280;45528;52.102;5.242;2023-05-03T08:16:32;102570.0;;;16.36;39.12
32452;BME280;45528;52.102;5.242;2023-05-03T08:18:08;102569.0;;;16.5;38.85
32452;BME280;45528;52.102;5.242;2023-05-03T08:19:45;102558.99999999999;;;16.71;38.92
32452;BME280;45528;52.102;5.242;2023-05-03T08:22:57;102558.99999999999;;;16.59;38.67
32452;BME280;45528;52.102;5.242;2023-05-03T08:24:33;102546.0;;;16.73;38.49
32452;BME280;45528;52.102;5.242;2023-05-03T08:26:09;102551.0;;;16.79;38.64
32452;BME280;45528;52.102;5.242;2023-05-03T08:27:45;102539.00000000001;;;16.72;39.53
32452;BME280;45528;52.102;5.242;2023-05-03T08:30:59;102534.99999999999;;;16.86;38.44
32452;BME280;45528;52.102;5.242;2023-05-03T08:32:36;102540.00000000001;;;16.78;38.49
32452;BME280;45528;52.102;5.242;2023-05-03T08:34:12;102540.00000000001;;;16.93;38.46
32452;BME280;45528;52.102;5.242;2023-05-03T08:37:24;102543.0;;;17.11;38.69
32452;BME280;45528;52.102;5.242;2023-05-03T08:39:01;102546.0;;;16.64;38.82
32452;BME280;45528;52.102;5.242;2023-05-03T08:40:38;102546.0;;;17.02;39.57
32452;BME280;45528;52.102;5.242;2023-05-03T08:43:51;102558.0;;;17.11;37.78
32452;BME280;45528;52.102;5.242;2023-05-03T08:45:31;102559.99999999999;;;16.68;38.69
32452;BME280;45528;52.102;5.242;2023-05-03T08:47:08;102558.0;;;17.02;38.6
32452;BME280;45528;52.102;5.242;2023-05-03T08:48:46;102557.0;;;17.02;38.67
32452;BME280;45528;52.102;5.242;2023-05-03T08:52:01;102566.00000000001;;;16.93;38.9
32452;BME280;45528;52.102;5.242;2023-05-03T08:53:40;102563.00000000001;;;16.79;38.53
32452;BME280;45528;52.102;5.242;2023-05-03T08:55:16;102558.99999999999;;;16.86;38.96
32452;BME280;45528;52.102;5.242;2023-05-03T08:58:28;102550.0;;;16.75;39.03
32452;BME280;45528;52.102;5.242;2023-05-03T09:00:06;102553.0;;;16.75;39.24
32452;BME280;45528;52.102;5.242;2023-05-03T09:01:43;102558.0;;;17.2;38.31
32452;BME280;45528;52.102;5.242;2023-05-03T09:03:19;102556.0;;;17.63;38.08
32452;BME280;45528;52.102;5.242;2023-05-03T09:06:31;102555.0;;;17.53;37.24
32452;BME280;45528;52.102;5.242;2023-05-03T09:08:11;102553.0;;;17.77;38.47
32452;BME280;45528;52.102;5.242;2023-05-03T09:09:47;102557.0;;;17.97;36.64
32452;BME280;45528;52.102;5.242;2023-05-03T09:13:04;102564.00000000001;;;17.62;37.5
32452;BME280;45528;52.102;5.242;2023-05-03T09:14:41;102563.00000000001;;;17.25;37.26
32452;BME280;45528;52.102;5.242;2023-05-03T09:16:22;102573.0;;;17.66;36.71
32452;BME280;45528;52.102;5.242;2023-05-03T09:18:06;102564.00000000001;;;17.38;36.67
32452;BME280;45528;52.102;5.242;2023-05-03T09:21:28;102559.99999999999;;;17.72;37.08
32452;BME280;45528;52.102;5.242;2023-05-03T09:23:06;102564.00000000001;;;17.91;35.43
32452;BME280;45528;52.102;5.242;2023-05-03T09:24:50;102567.0;;;18.2;36.74
32452;BME280;45528;52.102;5.242;2023-05-03T09:26:27;102566.00000000001;;;18.31;35.96
32452;BME280;45528;52.102;5.242;2023-05-03T09:29:40;102565.00000000001;;;18.27;35.44
32452;BME280;45528;52.102;5.242;2023-05-03T09:31:16;102566.00000000001;;;18.28;35.92
32452;BME280;45528;52.102;5.242;2023-05-03T09:32:52;102570.0;;;18.22;34.17
32452;BME280;45528;52.102;5.242;2023-05-03T09:36:06;102578.0;;;18.53;34.81
32452;BME280;45528;52.102;5.242;2023-05-03T09:37:42;102567.0;;;18.43;34.72
32452;BME280;45528;52.102;5.242;2023-05-03T09:39:18;102568.0;;;18.54;34.37
32452;BME280;45528;52.102;5.242;2023-05-03T09:40:54;102576.0;;;18.25;34.96
32452;BME280;45528;52.102;5.242;2023-05-03T09:44:06;102572.0;;;18.56;33.92
32452;BME280;45528;52.102;5.242;2023-05-03T09:45:42;102571.0;;;18.59;34.31
32452;BME280;45528;52.102;5.242;2023-05-03T09:47:20;102570.0;;;18.38;35.04
32452;BME280;45528;52.102;5.242;2023-05-03T09:50:33;102568.0;;;18.84;34.89
32452;BME280;45528;52.102;5.242;2023-05-03T09:52:10;102571.0;;;18.32;34.99
32452;BME280;45528;52.102;5.242;2023-05-03T09:53:46;102564.00000000001;;;18.5;34.46
32452;BME280;45528;52.102;5.242;2023-05-03T09:57:01;102568.0;;;18.3;34.03
32452;BME280;45528;52.102;5.242;2023-05-03T09:58:39;102565.00000000001;;;18.75;34.43
32452;BME280;45528;52.102;5.242;2023-05-03T10:00:16;102558.99999999999;;;18.95;33.64
32452;BME280;45528;52.102;5.242;2023-05-03T10:01:57;102558.99999999999;;;19.27;34.12
32452;BME280;45528;52.102;5.242;2023-05-03T10:05:17;102555.0;;;19.27;33.21
32452;BME280;45528;52.102;5.242;2023-05-03T10:06:58;102554.0;;;19.14;33.62
32452;BME280;45528;52.102;5.242;2023-05-03T10:08:39;102545.0;;;18.89;34.14
32452;BME280;45528;52.102;5.242;2023-05-03T10:10:16;102550.0;;;19.3;35.18
32452;BME280;45528;52.102;5.242;2023-05-03T10:13:33;102545.0;;;19.66;33.75
32452;BME280;45528;52.102;5.242;2023-05-03T10:15:12;102547.0;;;19.32;32.83
32452;BME280;45528;52.102;5.242;2023-05-03T10:16:52;102541.00000000001;;;18.79;34.49
32452;BME280;45528;52.102;5.242;2023-05-03T10:18:39;102546.0;;;18.97;33.85
32452;BME280;45528;52.102;5.242;2023-05-03T10:22:05;102541.00000000001;;;18.78;33.36
32452;BME280;45528;52.102;5.242;2023-05-03T10:24:08;102533.99999999999;;;19.16;33.33
32452;BME280;45528;52.102;5.242;2023-05-03T10:26:17;102538.00000000001;;;18.84;34.47
32452;BME280;45528;52.102;5.242;2023-05-03T10:28:01;102545.0;;;18.77;34.0
32452;BME280;45528;52.102;5.242;2023-05-03T10:29:46;102541.00000000001;;;19.36;32.92
32452;BME280;45528;52.102;5.242;2023-05-03T10:31:57;102536.99999999999;;;19.45;34.51
32452;BME280;45528;52.102;5.242;2023-05-03T10:33:33;102538.00000000001;;;19.59;33.96
32452;BME280;45528;52.102;5.242;2023-05-03T10:36:50;102542.0;;;19.36;34.56
32452;BME280;45528;52.102;5.242;2023-05-03T10:38:28;102536.99999999999;;;19.32;34.0